createdAt,value
2023-02-08T01:50:18.103Z,803.00
2023-02-08T01:51:18.127Z,806.00
2023-02-08T01:52:18.178Z,804.00
2023-02-08T01:53:18.192Z,804.00
2023-02-08T01:54:18.202Z,807.00
2023-02-08T01:55:18.219Z,806.00
2023-02-08T01:56:18.250Z,803.00
2023-02-08T01:57:18.250Z,801.00
2023-02-08T01:58:18.287Z,800.00
2023-02-08T01:59:18.287Z,801.00
2023-02-08T02:00:18.304Z,802.00
2023-02-08T02:01:18.379Z,804.00
2023-02-08T02:02:18.362Z,802.00
2023-02-08T02:03:18.350Z,800.00
2023-02-08T02:04:18.376Z,797.00
2023-02-08T02:05:18.377Z,796.00
2023-02-08T02:06:18.382Z,797.00
2023-02-08T02:07:18.394Z,796.00
2023-02-08T02:08:18.405Z,796.00
2023-02-08T02:09:18.409Z,796.00
2023-02-08T02:10:18.431Z,796.00
2023-02-08T02:11:18.449Z,796.00
2023-02-08T02:12:18.450Z,794.00
2023-02-08T02:13:18.511Z,793.00
2023-02-08T02:14:18.499Z,793.00
2023-02-08T02:15:18.522Z,794.00
2023-02-08T02:16:18.556Z,795.00
2023-02-08T02:17:18.557Z,794.00
2023-02-08T02:18:18.599Z,795.00
2023-02-08T02:19:18.615Z,798.00
2023-02-08T02:20:18.633Z,795.00
2023-02-08T02:21:18.641Z,793.00
2023-02-08T02:22:18.681Z,794.00
2023-02-08T02:23:18.680Z,793.00
2023-02-08T02:24:18.698Z,796.00
2023-02-08T02:25:18.734Z,796.00
2023-02-08T02:26:18.753Z,791.00
2023-02-08T02:27:18.774Z,795.00
2023-02-08T02:28:18.851Z,796.00
2023-02-08T02:29:18.815Z,795.00
2023-02-08T02:30:18.836Z,793.00
2023-02-08T02:31:19.017Z,794.00
2023-02-08T02:32:18.884Z,794.00
2023-02-08T02:33:18.903Z,794.00
2023-02-08T02:34:18.914Z,798.00
2023-02-08T02:35:18.937Z,797.00
2023-02-08T02:36:18.955Z,795.00
2023-02-08T02:37:18.973Z,795.00
2023-02-08T02:38:18.990Z,790.00
2023-02-08T02:39:19.012Z,789.00
2023-02-08T02:40:19.027Z,788.00
2023-02-08T02:41:19.040Z,789.00
2023-02-08T02:42:19.058Z,791.00
2023-02-08T02:43:19.073Z,793.00
2023-02-08T02:44:19.101Z,791.00
2023-02-08T02:45:19.242Z,792.00
2023-02-08T02:46:19.126Z,792.00
2023-02-08T02:47:19.156Z,792.00
2023-02-08T02:48:19.174Z,791.00
2023-02-08T02:49:19.197Z,790.00
2023-02-08T02:50:19.218Z,790.00
2023-02-08T02:51:19.225Z,792.00
2023-02-08T02:52:19.262Z,791.00
2023-02-08T02:53:19.263Z,790.00
2023-02-08T02:54:19.292Z,789.00
2023-02-08T02:55:19.323Z,790.00
2023-02-08T02:56:19.316Z,787.00
2023-02-08T02:57:19.328Z,790.00
2023-02-08T02:58:19.354Z,791.00
2023-02-08T02:59:19.374Z,790.00
2023-02-08T03:00:19.383Z,789.00
2023-02-08T03:01:19.465Z,788.00
2023-02-08T03:02:19.410Z,789.00
2023-02-08T03:03:19.426Z,790.00
2023-02-08T03:26:19.834Z,790.00
2023-02-08T03:32:19.915Z,781.00
2023-02-08T03:33:19.950Z,778.00
2023-02-08T03:34:19.958Z,780.00
2023-02-08T03:35:19.978Z,778.00
2023-02-08T03:36:19.983Z,783.00
2023-02-08T03:37:20.015Z,781.00
2023-02-08T03:38:20.026Z,778.00
2023-02-08T03:39:20.057Z,780.00
2023-02-08T03:40:20.090Z,779.00
2023-02-08T03:41:20.094Z,775.00
2023-02-08T03:42:20.117Z,774.00
2023-02-08T03:43:20.146Z,775.00
2023-02-08T03:44:20.170Z,777.00
2023-02-08T03:45:20.184Z,774.00
2023-02-08T03:46:20.294Z,771.00
2023-02-08T03:47:20.223Z,771.00
2023-02-08T03:48:20.243Z,771.00
2023-02-08T03:49:20.262Z,770.00
2023-02-08T03:50:20.288Z,768.00
2023-02-08T03:51:20.313Z,769.00
2023-02-08T03:52:20.338Z,771.00
2023-02-08T03:53:20.350Z,770.00
2023-02-08T03:54:20.380Z,771.00
2023-02-08T03:55:20.397Z,771.00
2023-02-08T03:56:20.423Z,769.00
2023-02-08T03:57:20.442Z,771.00
2023-02-08T03:58:20.461Z,771.00
2023-02-08T03:59:20.484Z,773.00
2023-02-08T04:00:20.503Z,772.00
2023-02-08T04:01:20.552Z,772.00
2023-02-08T04:02:20.584Z,773.00
2023-02-08T04:03:20.570Z,774.00
2023-02-08T04:04:20.580Z,773.00
2023-02-08T04:05:20.605Z,775.00
2023-02-08T04:06:20.616Z,772.00
2023-02-08T04:07:20.627Z,772.00
2023-02-08T04:08:20.637Z,770.00
2023-02-08T04:09:20.706Z,775.00
2023-02-08T04:10:20.666Z,776.00
2023-02-08T04:11:20.699Z,775.00
2023-02-08T04:12:20.709Z,775.00
2023-02-08T04:13:20.733Z,773.00
2023-02-08T04:14:20.727Z,774.00
2023-02-08T04:15:20.749Z,772.00
2023-02-08T04:16:20.769Z,767.00
2023-02-08T04:17:20.785Z,766.00
2023-02-08T04:18:20.791Z,765.00
2023-02-08T04:19:20.819Z,767.00
2023-02-08T04:20:20.827Z,767.00
2023-02-08T04:21:20.843Z,766.00
2023-02-08T04:22:20.837Z,766.00
2023-02-08T04:23:20.834Z,766.00
2023-02-08T04:24:20.839Z,765.00
2023-02-08T04:25:20.842Z,764.00
2023-02-08T04:26:20.833Z,764.00
2023-02-08T04:27:20.829Z,766.00
2023-02-08T04:28:20.865Z,766.00
2023-02-08T04:30:20.814Z,771.00
2023-02-08T05:15:21.460Z,760.00
2023-02-08T05:16:21.543Z,757.00
2023-02-08T05:17:21.508Z,756.00
2023-02-08T05:18:21.541Z,756.00
2023-02-08T05:19:21.553Z,756.00
2023-02-08T05:20:21.595Z,758.00
2023-02-08T05:21:21.636Z,757.00
2023-02-08T05:22:21.664Z,757.00
2023-02-08T05:23:21.727Z,757.00
2023-02-08T05:24:21.781Z,757.00
2023-02-08T05:25:21.814Z,757.00
2023-02-08T05:26:21.843Z,757.00
2023-02-08T05:27:21.867Z,759.00
2023-02-08T05:28:21.895Z,758.00
2023-02-08T05:29:21.917Z,756.00
2023-02-08T05:30:21.961Z,756.00
2023-02-08T05:31:22.054Z,754.00
2023-02-08T05:32:22.003Z,751.00
2023-02-08T05:33:22.030Z,750.00
2023-02-08T05:34:22.069Z,746.00
2023-02-08T05:35:22.088Z,745.00
2023-02-08T05:36:22.089Z,746.00
2023-02-08T05:37:22.125Z,748.00
2023-02-08T05:38:22.147Z,749.00
2023-02-08T05:39:22.161Z,750.00
2023-02-08T05:40:22.199Z,751.00
2023-02-08T05:41:22.304Z,750.00
2023-02-08T05:42:22.308Z,750.00
2023-02-08T05:43:22.349Z,753.00
2023-02-08T05:44:22.359Z,750.00
2023-02-08T05:45:22.401Z,750.00
2023-02-08T05:46:22.473Z,749.00
2023-02-08T05:47:22.452Z,748.00
2023-02-08T05:48:22.483Z,745.00
2023-02-08T05:49:22.521Z,745.00
2023-02-08T05:50:22.493Z,746.00
2023-02-08T05:51:22.507Z,744.00
2023-02-08T05:52:22.508Z,747.00
2023-02-08T05:53:22.515Z,746.00
2023-02-08T05:54:22.551Z,749.00
2023-02-08T05:55:22.596Z,748.00
2023-02-08T05:56:22.670Z,747.00
2023-02-08T05:57:22.699Z,747.00
2023-02-08T05:58:22.711Z,749.00
2023-02-08T05:59:22.716Z,750.00
2023-02-08T06:00:22.739Z,751.00
2023-02-08T06:01:22.759Z,750.00
2023-02-08T06:02:22.775Z,749.00
2023-02-08T06:03:22.832Z,749.00
2023-02-08T06:04:22.789Z,746.00
2023-02-08T06:05:22.781Z,746.00
2023-02-08T06:06:22.786Z,745.00
2023-02-08T06:07:22.809Z,746.00
2023-02-08T06:08:22.830Z,747.00
2023-02-08T06:09:22.879Z,749.00
2023-02-08T06:10:22.901Z,750.00
2023-02-08T06:11:22.954Z,747.00
2023-02-08T06:12:22.904Z,744.00
2023-02-08T06:13:22.927Z,746.00
2023-02-08T06:14:22.953Z,748.00
2023-02-08T06:15:22.983Z,749.00
2023-02-08T06:16:23.011Z,747.00
2023-02-08T06:17:23.010Z,748.00
2023-02-08T06:18:23.032Z,748.00
2023-02-08T06:19:23.046Z,748.00
2023-02-08T06:20:23.080Z,748.00
2023-02-08T06:21:24.564Z,748.00
2023-02-08T06:22:23.057Z,750.00
2023-02-08T06:23:23.070Z,803.00
2023-02-08T06:24:23.098Z,801.00
2023-02-08T06:25:23.135Z,804.00
2023-02-08T06:26:23.173Z,812.00
2023-02-08T06:27:23.180Z,821.00
2023-02-08T06:28:23.266Z,877.00
2023-02-08T06:29:23.232Z,949.00
2023-02-08T06:30:23.235Z,971.00
2023-02-08T06:31:23.297Z,1015.00
2023-02-08T06:32:23.354Z,1017.00
2023-02-08T06:33:23.348Z,1013.00
2023-02-08T06:34:23.460Z,1007.00
2023-02-08T06:35:24.307Z,1002.00
2023-02-08T06:36:23.511Z,997.00
2023-02-08T06:37:23.527Z,994.00
2023-02-08T06:38:23.540Z,989.00
2023-02-08T06:39:23.587Z,983.00
2023-02-08T06:40:23.617Z,970.00
2023-02-08T06:41:23.649Z,943.00
2023-02-08T06:42:23.665Z,932.00
2023-02-08T06:43:23.663Z,926.00
2023-02-08T06:44:23.673Z,923.00
2023-02-08T06:45:23.694Z,917.00
2023-02-08T06:46:23.689Z,904.00
2023-02-08T06:47:23.716Z,893.00
2023-02-08T06:48:23.716Z,874.00
2023-02-08T06:49:23.702Z,871.00
2023-02-08T06:50:24.249Z,867.00
2023-02-08T06:51:23.682Z,864.00
2023-02-08T06:52:23.688Z,860.00
2023-02-08T06:53:23.680Z,855.00
2023-02-08T06:54:23.724Z,853.00
2023-02-08T06:55:23.714Z,850.00
2023-02-08T06:56:23.704Z,850.00
2023-02-08T06:57:23.736Z,844.00
2023-02-08T06:58:23.754Z,840.00
2023-02-08T06:59:23.761Z,832.00
2023-02-08T07:00:23.775Z,827.00
2023-02-08T07:01:23.862Z,823.00
2023-02-08T07:02:23.872Z,821.00
2023-02-08T07:03:23.785Z,818.00
2023-02-08T07:04:23.799Z,815.00
2023-02-08T07:05:23.795Z,813.00
2023-02-08T07:06:23.804Z,809.00
2023-02-08T07:07:23.799Z,800.00
2023-02-08T07:08:23.811Z,797.00
2023-02-08T07:09:23.826Z,793.00
2023-02-08T07:10:23.818Z,787.00
2023-02-08T07:11:23.832Z,782.00
2023-02-08T07:12:23.837Z,776.00
2023-02-08T07:13:23.835Z,768.00
2023-02-08T07:14:23.857Z,766.00
2023-02-08T07:15:23.857Z,762.00
2023-02-08T07:16:23.891Z,761.00
2023-02-08T07:17:23.857Z,758.00
2023-02-08T07:18:23.854Z,756.00
2023-02-08T07:19:23.850Z,754.00
2023-02-08T07:20:23.872Z,753.00
2023-02-08T07:21:23.828Z,754.00
2023-02-08T07:22:23.863Z,758.00
2023-02-08T07:23:23.877Z,766.00
2023-02-08T10:10:00.212Z,2851.00
2023-02-08T10:11:00.064Z,2901.00
2023-02-08T10:11:59.980Z,2930.00
2023-02-08T10:12:59.884Z,2941.00
2023-02-08T10:13:59.854Z,2952.00
2023-02-08T10:14:59.739Z,2968.00
2023-02-08T10:15:59.707Z,2988.00
2023-02-08T10:16:59.551Z,3060.00
2023-02-08T10:17:59.510Z,3074.00
2023-02-08T10:19:59.224Z,3086.00
2023-02-08T10:20:59.107Z,3071.00
2023-02-08T10:21:58.976Z,3071.00
2023-02-08T10:22:58.830Z,3066.00
2023-02-08T10:23:58.687Z,3055.00
2023-02-08T10:24:58.587Z,3040.00
2023-02-08T10:25:58.488Z,3035.00
2023-02-08T10:26:58.368Z,3036.00
2023-02-08T10:27:58.262Z,3035.00
2023-02-08T10:28:58.193Z,3024.00
2023-02-08T12:48:49.514Z,1861.00
2023-02-08T12:57:49.129Z,1847.00
2023-02-08T12:59:49.059Z,1841.00
2023-02-08T13:00:49.026Z,1838.00
2023-02-08T13:01:48.989Z,1840.00
2023-02-08T13:02:48.956Z,1839.00
2023-02-08T13:03:48.883Z,1839.00
2023-02-08T13:04:48.845Z,1842.00
2023-02-08T13:06:48.762Z,1841.00
2023-02-08T13:07:48.741Z,1845.00
2023-02-08T13:08:48.712Z,1843.00
2023-02-08T13:12:48.601Z,1836.00
2023-02-08T13:13:48.582Z,1835.00
2023-02-08T13:14:48.551Z,1835.00
2023-02-08T13:15:48.554Z,1835.00
2023-02-08T13:16:48.498Z,1831.00
2023-02-08T13:17:48.499Z,1833.00
2023-02-08T13:18:48.466Z,1834.00
2023-02-08T13:19:59.737Z,1835.00
2023-02-08T13:20:49.372Z,1832.00
2023-02-08T13:21:48.275Z,1833.00
2023-02-08T13:22:48.197Z,1830.00
2023-02-08T13:23:52.917Z,1829.00
2023-02-08T13:24:52.446Z,1825.00
2023-02-08T13:25:48.958Z,1820.00
2023-02-08T14:49:41.147Z,1715.00
2023-02-08T14:50:41.090Z,1717.00
2023-02-08T14:51:41.028Z,1714.00
2023-02-08T14:52:40.957Z,1717.00
2023-02-08T14:53:40.897Z,1713.00
2023-02-08T14:54:40.833Z,1712.00
2023-02-08T14:55:40.826Z,1709.00
2023-02-08T14:56:40.696Z,1704.00
2023-02-08T14:57:40.643Z,1704.00
2023-02-08T14:58:40.564Z,1702.00
2023-02-08T14:59:40.507Z,1701.00
2023-02-08T15:00:40.466Z,1699.00
2023-02-08T15:01:44.119Z,1701.00
2023-02-08T15:02:40.293Z,1706.00
2023-02-08T15:03:40.203Z,1704.00
2023-02-08T15:04:40.117Z,1705.00
2023-02-08T15:05:40.024Z,1701.00
2023-02-08T15:06:39.939Z,1699.00
2023-02-08T15:07:39.851Z,1694.00
2023-02-08T15:08:39.767Z,1690.00
2023-02-08T15:09:39.676Z,1691.00
2023-02-08T15:10:39.602Z,1689.00
2023-02-08T15:11:39.513Z,1689.00
2023-02-08T15:12:39.445Z,1688.00
2023-02-08T15:13:39.368Z,1692.00
2023-02-08T15:14:39.266Z,1691.00
2023-02-08T15:15:39.194Z,1689.00
2023-02-08T15:16:39.118Z,1690.00
2023-02-08T15:17:39.026Z,1687.00
2023-02-08T15:18:38.923Z,1688.00
2023-02-08T15:19:38.844Z,1691.00
2023-02-08T15:20:38.753Z,1689.00
2023-02-08T15:21:38.679Z,1688.00
2023-02-08T15:22:38.596Z,1691.00
2023-02-08T15:23:38.596Z,1690.00
2023-02-08T15:24:38.424Z,1687.00
2023-02-08T15:25:38.333Z,1685.00
2023-02-08T15:26:38.265Z,1684.00
2023-02-08T15:27:38.190Z,1684.00
2023-02-08T15:47:36.547Z,1667.00
2023-02-08T15:48:36.450Z,1669.00
2023-02-08T15:49:36.370Z,1668.00
2023-02-08T15:50:36.286Z,1668.00
2023-02-08T15:51:36.212Z,1669.00
2023-02-08T15:52:36.134Z,1667.00
2023-02-08T15:53:36.066Z,1663.00
2023-02-08T15:54:35.964Z,1658.00
2023-02-08T15:55:35.883Z,1657.00
2023-02-08T15:56:39.033Z,1654.00
2023-02-08T15:57:35.709Z,1652.00
2023-02-08T15:58:35.654Z,1648.00
2023-02-08T15:59:35.545Z,1642.00
2023-02-08T16:00:35.462Z,1644.00
2023-02-08T16:01:35.435Z,1646.00
2023-02-08T16:02:35.282Z,1641.00
2023-02-08T16:03:35.289Z,1640.00
2023-02-08T18:23:29.204Z,1493.00
2023-02-08T18:24:29.168Z,1492.00
2023-02-08T18:25:29.147Z,1489.00
2023-02-08T18:26:29.125Z,1485.00
2023-02-08T18:27:29.095Z,1486.00
2023-02-08T18:28:29.138Z,1487.00
2023-02-08T18:29:29.046Z,1488.00
2023-02-08T18:30:29.019Z,1492.00
2023-02-08T18:31:29.082Z,1491.00
2023-02-08T18:32:28.968Z,1489.00
2023-02-08T18:33:28.952Z,1485.00
2023-02-08T18:34:28.916Z,1484.00
2023-02-08T18:35:28.899Z,1485.00
2023-02-08T18:36:28.871Z,1482.00
2023-02-08T18:37:28.875Z,1483.00
2023-02-08T18:38:28.834Z,1481.00
2023-02-08T18:39:28.801Z,1484.00
2023-02-08T18:40:30.469Z,1483.00
2023-02-08T18:41:28.718Z,1486.00
2023-02-08T18:42:28.636Z,1486.00
2023-02-08T18:43:28.545Z,1488.00
2023-02-08T18:44:28.472Z,1490.00
2023-02-08T18:45:28.416Z,1487.00
2023-02-08T18:46:28.367Z,1488.00
2023-02-08T18:47:28.251Z,1485.00
2023-02-08T18:48:28.184Z,1484.00
2023-02-08T18:49:28.098Z,1478.00
2023-02-08T18:50:28.028Z,1479.00
2023-02-08T18:51:27.957Z,1479.00
2023-02-08T18:52:28.851Z,1478.00
2023-02-08T18:53:27.774Z,1474.00
2023-02-08T18:54:27.702Z,1471.00
2023-02-08T18:55:27.633Z,1469.00
2023-02-08T18:56:27.563Z,1470.00
2023-02-08T18:57:27.479Z,1465.00
2023-02-08T18:58:27.442Z,1467.00
2023-02-08T18:59:27.421Z,1462.00
2023-02-08T19:00:27.426Z,1458.00
2023-02-08T19:01:27.361Z,1457.00
2023-02-08T19:02:27.361Z,1458.00
2023-02-08T19:03:27.310Z,1459.00
2023-02-08T19:04:27.284Z,1461.00
2023-02-08T19:05:27.907Z,1462.00
2023-02-08T19:06:27.260Z,1466.00
2023-02-08T19:07:27.247Z,1466.00
2023-02-08T19:08:27.182Z,1463.00
2023-02-08T19:09:27.170Z,1463.00
2023-02-08T19:10:27.210Z,1461.00
2023-02-08T19:11:27.166Z,1457.00
2023-02-08T19:12:27.087Z,1453.00
2023-02-08T19:13:27.065Z,1452.00
2023-02-08T19:14:27.038Z,1452.00
2023-02-08T19:15:27.026Z,1452.00
2023-02-08T19:16:27.028Z,1451.00
2023-02-08T19:17:26.984Z,1448.00
2023-02-08T19:18:26.951Z,1450.00
2023-02-08T19:19:26.927Z,1443.00
2023-02-08T19:20:26.906Z,1447.00
2023-02-08T19:21:26.862Z,1445.00
2023-02-08T19:22:26.852Z,1445.00
2023-02-08T19:23:26.825Z,1446.00
2023-02-08T19:24:26.792Z,1446.00
2023-02-08T19:25:26.751Z,1443.00
2023-02-08T19:26:26.737Z,1440.00
2023-02-08T19:27:26.683Z,1440.00
2023-02-08T19:28:26.677Z,1442.00
2023-02-08T19:29:26.629Z,1445.00
2023-02-08T19:30:26.607Z,1441.00
2023-02-08T19:31:26.775Z,1441.00
2023-02-08T19:32:26.569Z,1444.00
2023-02-08T19:33:26.543Z,1445.00
2023-02-08T19:34:26.512Z,1446.00
2023-02-08T19:35:26.507Z,1446.00
2023-02-08T19:36:26.476Z,1448.00
2023-02-08T19:37:26.459Z,1443.00
2023-02-08T19:38:26.425Z,1442.00
2023-02-08T19:39:26.406Z,1438.00
2023-02-08T19:40:26.368Z,1439.00
2023-02-08T19:41:26.301Z,1443.00
2023-02-08T19:42:26.275Z,1446.00
2023-02-08T19:43:26.254Z,1444.00
2023-02-08T19:44:29.086Z,1442.00
2023-02-08T19:45:26.193Z,1443.00
2023-02-08T19:46:26.068Z,1445.00
2023-02-08T19:47:43.481Z,1439.00
2023-02-08T19:48:26.918Z,1435.00
2023-02-08T19:49:25.925Z,1431.00
2023-02-08T19:50:25.751Z,1432.00
2023-02-08T19:51:25.688Z,1434.00
2023-02-08T19:52:25.612Z,1430.00
2023-02-08T19:53:25.541Z,1426.00
2023-02-08T19:54:25.462Z,1432.00
2023-02-08T19:55:25.378Z,1427.00
2023-02-08T19:56:25.312Z,1428.00
2023-02-08T19:57:25.229Z,1429.00
2023-02-08T21:01:23.883Z,1388.00
2023-02-08T21:21:23.490Z,1368.00
2023-02-08T21:22:23.469Z,1367.00
2023-02-08T21:23:23.433Z,1364.00
2023-02-08T21:24:23.439Z,1368.00
2023-02-08T21:25:23.414Z,1369.00
2023-02-08T21:26:23.398Z,1370.00
2023-02-08T21:27:23.374Z,1371.00
2023-02-08T21:28:23.517Z,1371.00
2023-02-08T21:29:23.333Z,1366.00
2023-02-08T21:30:23.296Z,1365.00
2023-02-08T21:31:23.405Z,1365.00
2023-02-08T21:32:23.270Z,1361.00
2023-02-08T21:33:23.249Z,1358.00
2023-02-08T21:34:23.236Z,1357.00
2023-02-08T21:35:23.236Z,1354.00
2023-02-08T21:36:23.274Z,1354.00
2023-02-08T21:37:23.179Z,1352.00
2023-02-08T21:38:23.163Z,1355.00
2023-02-08T21:39:23.157Z,1358.00
2023-02-08T21:40:23.120Z,1357.00
2023-02-08T21:41:23.156Z,1357.00
2023-02-08T21:42:23.085Z,1353.00
2023-02-08T21:43:23.077Z,1354.00
2023-02-08T21:44:23.059Z,1352.00
2023-02-08T21:45:23.025Z,1351.00
2023-02-08T21:46:23.192Z,1349.00
2023-02-08T21:47:23.002Z,1350.00
2023-02-08T21:48:22.976Z,1348.00
2023-02-08T21:49:22.960Z,1348.00
2023-02-08T21:50:22.928Z,1348.00
2023-02-08T21:51:22.929Z,1349.00
2023-02-08T21:52:22.895Z,1350.00
